Time;durP1;ratioP1;P1;durP2;ratioP2;P2;SDS_P1;SDS_P2;PMS_P1;PMS_P2;Temp;Humidity;BMP_temperature;BMP_pressure;BME280_temperature;BME280_humidity;BME280_pressure;Samples;Min_cycle;Max_cycle;Signal;HPM_P1;HPM_P2
2024/03/20 00:00:20;;;;;;;16.83;9.82;;;7.80;99.90;;;;;;5067519;28;20047;-45
2024/03/20 00:02:46;;;;;;;16.45;10.35;;;7.80;99.90;;;;;;5068331;28;20040;-47
2024/03/20 00:05:16;;;;;;;19.27;10.40;;;7.70;99.90;;;;;;5066801;28;20476;-47
2024/03/20 00:07:42;;;;;;;19.30;10.98;;;7.70;99.90;;;;;;5051579;28;20055;-48
2024/03/20 00:10:12;;;;;;;18.63;10.80;;;7.60;99.90;;;;;;5068341;28;20037;-43
2024/03/20 00:12:41;;;;;;;19.17;10.25;;;7.60;99.90;;;;;;5062408;28;20048;-47
2024/03/20 00:15:08;;;;;;;16.65;10.40;;;7.60;99.90;;;;;;5074642;28;20055;-44
2024/03/20 00:17:35;;;;;;;16.17;10.43;;;7.50;99.90;;;;;;5068274;28;20033;-44
2024/03/20 00:20:03;;;;;;;18.67;10.50;;;7.50;99.90;;;;;;5065993;28;20049;-43
2024/03/20 00:22:30;;;;;;;16.80;10.10;;;7.50;99.90;;;;;;5068589;28;20066;-41
2024/03/20 00:24:56;;;;;;;15.70;10.00;;;7.40;99.90;;;;;;5066158;28;20040;-47
2024/03/20 00:27:22;;;;;;;17.13;10.18;;;7.40;99.90;;;;;;5066730;28;20041;-48
2024/03/20 00:29:48;;;;;;;14.98;9.88;;;7.30;99.90;;;;;;5069224;28;20511;-44
2024/03/20 00:32:14;;;;;;;14.68;9.68;;;7.30;99.90;;;;;;5069682;28;20057;-48
2024/03/20 00:34:40;;;;;;;17.02;9.50;;;7.20;99.90;;;;;;5068245;28;20048;-46
2024/03/20 00:37:07;;;;;;;16.25;9.38;;;7.20;99.90;;;;;;5066573;28;20048;-47
2024/03/20 00:39:32;;;;;;;19.70;10.25;;;7.20;99.90;;;;;;5065985;28;20052;-45
2024/03/20 00:41:58;;;;;;;15.13;10.18;;;7.20;99.90;;;;;;5065728;28;20107;-48
2024/03/20 00:44:24;;;;;;;15.48;9.57;;;7.20;99.90;;;;;;5069162;28;20048;-46
2024/03/20 00:46:50;;;;;;;17.20;10.48;;;7.20;99.90;;;;;;5066366;28;20079;-45
2024/03/20 00:49:17;;;;;;;20.35;10.07;;;7.30;99.90;;;;;;5066907;28;20037;-45
2024/03/20 00:51:43;;;;;;;17.13;9.77;;;7.30;99.90;;;;;;5064083;28;20509;-46
2024/03/20 00:54:09;;;;;;;15.20;9.40;;;7.20;99.90;;;;;;5071458;28;20048;-41
2024/03/20 00:56:35;;;;;;;18.25;10.60;;;7.20;99.90;;;;;;5066590;28;20041;-48
2024/03/20 00:59:02;;;;;;;16.23;9.80;;;7.20;99.90;;;;;;5069042;28;20060;-48
2024/03/20 01:01:28;;;;;;;13.95;8.98;;;7.20;99.90;;;;;;5069275;28;20044;-41
2024/03/20 01:03:54;;;;;;;15.43;9.40;;;7.20;99.90;;;;;;5068275;28;20056;-43
2024/03/20 01:06:20;;;;;;;15.55;9.68;;;7.10;99.90;;;;;;5070942;28;20044;-44
2024/03/20 01:08:46;;;;;;;17.98;10.45;;;7.00;99.90;;;;;;5069099;28;20037;-41
2024/03/20 01:11:12;;;;;;;16.05;9.23;;;7.00;99.90;;;;;;5068060;28;20059;-46
2024/03/20 01:13:38;;;;;;;16.52;10.43;;;7.00;99.90;;;;;;5066831;28;20040;-42
2024/03/20 01:16:04;;;;;;;18.45;10.45;;;6.90;99.90;;;;;;5066501;28;20048;-41
2024/03/20 01:18:30;;;;;;;19.90;10.07;;;6.90;99.90;;;;;;5070163;28;20126;-49
2024/03/20 01:20:57;;;;;;;14.05;9.60;;;6.90;99.90;;;;;;5068403;28;20513;-45
2024/03/20 01:23:24;;;;;;;16.98;9.45;;;6.80;99.90;;;;;;5070715;28;20040;-48
2024/03/20 01:25:50;;;;;;;14.45;9.32;;;6.80;99.90;;;;;;5067620;28;20071;-50
2024/03/20 01:28:16;;;;;;;21.73;11.43;;;6.70;99.90;;;;;;5069069;28;20044;-47
2024/03/20 01:30:42;;;;;;;19.25;10.85;;;6.70;99.90;;;;;;5081382;28;20469;-45
2024/03/20 01:33:08;;;;;;;14.13;9.93;;;6.60;99.90;;;;;;5071470;28;20060;-44
2024/03/20 01:35:33;;;;;;;16.50;9.80;;;6.70;99.90;;;;;;5068162;28;20095;-47
2024/03/20 01:37:59;;;;;;;19.05;10.30;;;6.60;99.90;;;;;;5068982;28;20056;-45
2024/03/20 01:40:25;;;;;;;15.95;9.77;;;6.60;99.90;;;;;;5052411;28;20045;-43
2024/03/20 01:42:55;;;;;;;17.10;9.45;;;6.50;99.90;;;;;;5071856;28;20036;-43
2024/03/20 01:45:21;;;;;;;16.83;9.57;;;6.50;99.90;;;;;;5069776;28;20073;-43
2024/03/20 01:47:47;;;;;;;14.07;9.57;;;6.50;99.90;;;;;;5070678;28;20056;-46
2024/03/20 01:50:14;;;;;;;14.48;8.82;;;6.40;99.90;;;;;;5062717;28;20044;-45
2024/03/20 01:52:53;;;;;;;17.38;9.65;;;6.50;99.90;;;;;;5065465;28;20056;-46
2024/03/20 01:55:21;;;;;;;15.40;9.45;;;6.40;99.90;;;;;;5064444;28;20043;-44
2024/03/20 01:57:53;;;;;;;16.17;10.02;;;6.40;99.90;;;;;;5069822;28;20040;-48
2024/03/20 02:00:23;;;;;;;14.55;9.23;;;6.40;99.90;;;;;;5057149;28;20469;-47
2024/03/20 02:02:53;;;;;;;14.50;9.40;;;6.30;99.90;;;;;;5073055;28;20037;-46
2024/03/20 02:05:19;;;;;;;15.20;9.60;;;6.40;99.90;;;;;;5068572;28;20090;-48
2024/03/20 02:07:46;;;;;;;13.15;8.98;;;6.30;99.90;;;;;;5071119;28;20555;-50
2024/03/20 02:10:12;;;;;;;15.05;9.68;;;6.40;99.90;;;;;;5072288;28;20080;-42
2024/03/20 02:12:38;;;;;;;18.48;9.70;;;6.30;99.90;;;;;;5066141;28;20501;-45
2024/03/20 02:15:08;;;;;;;17.73;10.02;;;6.30;99.90;;;;;;5068881;28;20036;-42
2024/03/20 02:17:41;;;;;;;13.52;9.43;;;6.30;99.90;;;;;;5071417;28;20607;-47
2024/03/20 02:20:11;;;;;;;17.55;9.00;;;6.30;99.90;;;;;;5072414;28;20045;-45
2024/03/20 02:22:42;;;;;;;13.40;8.75;;;6.30;99.90;;;;;;5067802;28;20070;-42
2024/03/20 02:25:12;;;;;;;13.27;9.02;;;6.30;99.90;;;;;;5069205;28;20037;-47
2024/03/20 02:27:39;;;;;;;16.17;9.50;;;6.30;99.90;;;;;;5068764;28;20037;-46
2024/03/20 02:30:14;;;;;;;13.07;8.90;;;6.20;99.90;;;;;;5071051;28;20048;-44
2024/03/20 02:32:40;;;;;;;15.00;8.90;;;6.20;99.90;;;;;;5069251;28;20045;-48
2024/03/20 02:35:07;;;;;;;12.65;9.00;;;6.20;99.90;;;;;;5070759;28;20580;-46
2024/03/20 02:37:34;;;;;;;13.52;9.45;;;6.10;99.90;;;;;;5068500;28;20037;-45
2024/03/20 02:40:00;;;;;;;16.80;9.30;;;6.10;99.90;;;;;;5067192;28;20063;-47
2024/03/20 02:42:26;;;;;;;15.73;8.73;;;6.10;99.90;;;;;;5071553;28;20047;-43
2024/03/20 02:44:53;;;;;;;13.77;9.38;;;6.10;99.90;;;;;;5070286;28;20056;-45
2024/03/20 02:47:19;;;;;;;12.88;8.85;;;6.10;99.90;;;;;;5070611;28;20036;-46
2024/03/20 02:49:52;;;;;;;15.73;9.15;;;6.10;99.90;;;;;;5068971;28;20048;-41
2024/03/20 02:52:19;;;;;;;16.38;9.43;;;6.10;99.90;;;;;;5069312;28;20048;-44
2024/03/20 02:54:46;;;;;;;16.60;8.80;;;6.00;99.90;;;;;;5069942;28;20148;-46
2024/03/20 02:57:11;;;;;;;14.80;8.02;;;6.10;99.90;;;;;;5069936;28;20052;-44
2024/03/20 02:59:37;;;;;;;14.93;8.93;;;6.00;99.90;;;;;;5069002;28;20028;-46
2024/03/20 03:02:04;;;;;;;14.40;9.05;;;6.00;99.90;;;;;;5065587;28;20045;-41
2024/03/20 03:04:30;;;;;;;13.15;8.50;;;6.00;99.90;;;;;;5068505;28;20051;-42
2024/03/20 03:06:56;;;;;;;12.57;8.30;;;6.00;99.90;;;;;;5069356;28;20036;-44
2024/03/20 03:09:22;;;;;;;12.27;7.72;;;6.00;99.90;;;;;;5069373;28;20496;-46
2024/03/20 03:11:48;;;;;;;15.38;8.98;;;6.00;99.90;;;;;;5076604;28;20075;-44
2024/03/20 03:14:15;;;;;;;13.65;8.95;;;6.00;99.90;;;;;;5070355;28;20045;-49
2024/03/20 03:16:41;;;;;;;16.52;9.27;;;6.00;99.90;;;;;;5068556;28;20036;-46
2024/03/20 03:19:09;;;;;;;12.40;8.73;;;6.00;99.90;;;;;;5071842;28;20573;-47
2024/03/20 03:21:36;;;;;;;13.07;8.82;;;6.00;99.90;;;;;;5070355;28;20062;-49
2024/03/20 03:24:06;;;;;;;13.23;8.95;;;6.00;99.90;;;;;;5071823;28;20056;-45
2024/03/20 03:26:32;;;;;;;13.07;8.35;;;6.00;99.90;;;;;;5070557;28;20052;-45
2024/03/20 03:28:59;;;;;;;11.60;8.35;;;6.00;99.90;;;;;;5072128;28;20052;-45
2024/03/20 03:31:26;;;;;;;14.07;8.63;;;6.00;99.90;;;;;;5073178;28;20073;-46
2024/03/20 03:33:52;;;;;;;16.60;9.13;;;5.90;99.90;;;;;;5070022;28;20067;-43
2024/03/20 03:36:18;;;;;;;14.85;8.90;;;5.90;99.90;;;;;;5070537;28;20040;-45
2024/03/20 03:38:44;;;;;;;16.85;9.57;;;5.90;99.90;;;;;;5068683;28;20431;-46
2024/03/20 03:41:10;;;;;;;13.18;9.20;;;5.90;99.90;;;;;;5072209;28;20178;-46
2024/03/20 03:43:39;;;;;;;15.85;8.40;;;5.80;99.90;;;;;;5069862;28;20444;-46
2024/03/20 03:46:05;;;;;;;13.57;8.77;;;5.80;99.90;;;;;;5069721;28;20535;-47
2024/03/20 03:48:32;;;;;;;16.45;8.70;;;5.80;99.90;;;;;;5067883;28;20535;-46
2024/03/20 03:50:58;;;;;;;12.90;8.60;;;5.80;99.90;;;;;;5067617;28;20251;-46
2024/03/20 03:53:24;;;;;;;14.48;9.27;;;5.80;99.90;;;;;;5068402;28;20055;-49
2024/03/20 03:55:50;;;;;;;16.98;9.18;;;5.80;99.90;;;;;;5069074;28;20056;-49
2024/03/20 03:58:16;;;;;;;16.08;9.15;;;5.70;99.90;;;;;;5070239;28;20055;-44
2024/03/20 04:00:42;;;;;;;12.52;9.05;;;5.70;99.90;;;;;;5064599;28;20217;-42
2024/03/20 04:03:08;;;;;;;15.18;8.90;;;5.70;99.90;;;;;;5068647;28;20523;-45
2024/03/20 04:05:35;;;;;;;20.63;9.55;;;5.60;99.90;;;;;;5065868;28;20040;-45
2024/03/20 04:08:01;;;;;;;14.30;8.93;;;5.70;99.90;;;;;;5058121;28;20060;-43
2024/03/20 04:10:27;;;;;;;13.95;8.65;;;5.60;99.90;;;;;;5065660;28;20473;-43
2024/03/20 04:12:53;;;;;;;14.30;9.35;;;5.60;99.90;;;;;;5069262;28;20044;-45
2024/03/20 04:15:19;;;;;;;14.65;9.02;;;5.60;99.90;;;;;;5064461;28;20048;-48
2024/03/20 04:17:45;;;;;;;17.40;9.45;;;5.50;99.90;;;;;;5067653;28;20040;-47
2024/03/20 04:20:11;;;;;;;15.20;9.13;;;5.60;99.90;;;;;;5068534;28;20094;-48
2024/03/20 04:22:38;;;;;;;15.00;8.85;;;5.50;99.90;;;;;;5066394;28;20044;-47
2024/03/20 04:25:05;;;;;;;14.68;8.57;;;5.50;99.90;;;;;;5069226;28;20166;-45
2024/03/20 04:27:37;;;;;;;12.07;8.65;;;5.50;99.90;;;;;;5071004;28;20044;-45
2024/03/20 04:30:04;;;;;;;15.70;8.45;;;5.50;99.90;;;;;;5072585;28;20294;-42
2024/03/20 04:32:30;;;;;;;13.20;8.80;;;5.50;99.90;;;;;;5071168;28;20116;-46
2024/03/20 04:34:56;;;;;;;14.35;8.75;;;5.40;99.90;;;;;;5071856;28;20052;-46
2024/03/20 04:37:22;;;;;;;14.77;9.23;;;5.40;99.90;;;;;;5072389;28;20131;-49
2024/03/20 04:39:49;;;;;;;16.75;9.07;;;5.40;99.90;;;;;;5071090;28;20044;-44
2024/03/20 04:42:14;;;;;;;16.40;9.95;;;5.40;99.90;;;;;;5074154;28;20090;-45
2024/03/20 04:44:40;;;;;;;13.38;9.35;;;5.40;99.90;;;;;;5071531;28;20041;-45
2024/03/20 04:47:06;;;;;;;14.93;9.32;;;5.40;99.90;;;;;;5073000;28;20040;-41
2024/03/20 04:49:33;;;;;;;16.85;8.85;;;5.40;99.90;;;;;;5070917;28;20126;-47
2024/03/20 04:51:59;;;;;;;15.60;9.60;;;5.30;99.90;;;;;;5070056;28;20048;-48
2024/03/20 04:54:26;;;;;;;13.80;8.88;;;5.40;99.90;;;;;;5074510;28;20056;-43
2024/03/20 04:56:52;;;;;;;15.75;10.10;;;5.40;99.90;;;;;;5070533;28;20147;-44
2024/03/20 04:59:18;;;;;;;12.65;9.05;;;5.30;99.90;;;;;;5073417;28;20086;-45
2024/03/20 05:01:44;;;;;;;16.42;9.27;;;5.30;99.90;;;;;;5069334;28;20509;-46
2024/03/20 05:04:11;;;;;;;15.95;8.45;;;5.30;99.90;;;;;;5076175;28;20049;-44
2024/03/20 05:06:37;;;;;;;15.35;9.88;;;5.40;99.90;;;;;;5074736;28;20036;-48
2024/03/20 05:09:04;;;;;;;15.50;10.07;;;5.30;99.90;;;;;;5072973;28;20040;-46
2024/03/20 05:11:31;;;;;;;15.30;9.63;;;5.30;99.90;;;;;;5057899;28;20096;-45
2024/03/20 05:13:57;;;;;;;15.00;9.02;;;5.40;99.90;;;;;;5071632;28;20544;-44
2024/03/20 05:16:23;;;;;;;15.55;9.77;;;5.40;99.90;;;;;;5071851;28;20040;-46
2024/03/20 05:18:49;;;;;;;15.73;10.38;;;5.40;99.90;;;;;;5075321;28;20081;-48
2024/03/20 05:21:15;;;;;;;14.25;8.43;;;5.40;99.90;;;;;;5075548;28;20068;-46
2024/03/20 05:23:41;;;;;;;19.40;10.23;;;5.40;99.90;;;;;;5074531;28;20123;-49
2024/03/20 05:26:07;;;;;;;15.88;10.18;;;5.40;99.90;;;;;;5076990;28;20470;-48
2024/03/20 05:28:33;;;;;;;18.95;10.23;;;5.40;99.90;;;;;;5077449;28;20047;-48
2024/03/20 05:30:59;;;;;;;14.30;9.60;;;5.40;99.90;;;;;;5073664;28;20056;-49
2024/03/20 05:33:25;;;;;;;17.08;9.18;;;5.40;99.90;;;;;;5073950;28;20048;-47
2024/03/20 05:35:51;;;;;;;19.50;10.13;;;5.50;99.90;;;;;;5070797;28;20182;-46
2024/03/20 05:38:18;;;;;;;14.55;10.15;;;5.50;99.90;;;;;;5077731;28;20063;-47
2024/03/20 05:40:44;;;;;;;17.60;10.32;;;5.50;99.90;;;;;;5068449;28;20497;-44
2024/03/20 05:43:10;;;;;;;17.20;10.10;;;5.60;99.90;;;;;;5073129;28;20505;-49
2024/03/20 05:45:37;;;;;;;13.10;9.27;;;5.70;99.90;;;;;;5072465;28;20048;-45
2024/03/20 05:48:03;;;;;;;14.40;9.85;;;5.70;99.90;;;;;;5073543;28;20075;-46
2024/03/20 05:50:30;;;;;;;19.52;10.27;;;5.80;99.90;;;;;;5073932;28;20036;-45
2024/03/20 05:52:56;;;;;;;15.68;10.55;;;5.90;99.90;;;;;;5072019;28;20347;-46
2024/03/20 05:55:22;;;;;;;16.55;10.73;;;6.00;99.90;;;;;;5076248;28;20151;-47
2024/03/20 05:57:51;;;;;;;19.08;11.68;;;6.10;99.90;;;;;;5070056;28;20033;-48
2024/03/20 06:00:19;;;;;;;16.20;10.57;;;6.20;99.90;;;;;;5070400;28;20052;-47
2024/03/20 06:02:45;;;;;;;16.95;10.68;;;6.20;99.90;;;;;;5070054;28;20098;-43
2024/03/20 06:05:12;;;;;;;16.25;11.13;;;6.40;99.90;;;;;;5076526;28;20145;-43
2024/03/20 06:07:39;;;;;;;21.17;11.73;;;6.40;99.90;;;;;;5049467;28;20040;-45
2024/03/20 06:10:08;;;;;;;16.83;10.88;;;6.60;99.90;;;;;;5078392;28;20060;-47
2024/03/20 06:12:35;;;;;;;17.77;11.70;;;6.70;99.90;;;;;;5077942;28;20044;-43
2024/03/20 06:15:02;;;;;;;20.35;11.52;;;6.70;99.90;;;;;;5070024;28;20086;-48
2024/03/20 06:17:28;;;;;;;17.20;11.90;;;6.80;99.90;;;;;;5069559;28;20055;-46
2024/03/20 06:19:56;;;;;;;22.13;11.02;;;6.90;99.90;;;;;;5076817;28;20076;-47
2024/03/20 06:22:24;;;;;;;17.85;10.80;;;6.90;99.90;;;;;;5070154;28;20052;-46
2024/03/20 06:24:50;;;;;;;17.05;11.45;;;7.00;99.90;;;;;;5070592;28;20058;-46
2024/03/20 06:27:17;;;;;;;18.30;11.63;;;7.10;99.90;;;;;;5068806;28;20037;-46
2024/03/20 06:29:44;;;;;;;18.50;10.98;;;7.20;99.90;;;;;;5070109;28;20056;-46
2024/03/20 06:32:10;;;;;;;18.88;12.02;;;7.20;99.90;;;;;;5068078;28;20040;-46
2024/03/20 06:34:37;;;;;;;22.02;12.32;;;7.30;99.90;;;;;;5068002;28;20249;-45
2024/03/20 06:37:03;;;;;;;20.02;11.80;;;7.30;99.90;;;;;;5070951;28;20429;-48
2024/03/20 06:39:30;;;;;;;18.20;12.05;;;7.40;99.90;;;;;;5068513;28;20039;-44
2024/03/20 06:41:56;;;;;;;21.58;12.52;;;7.50;99.90;;;;;;5051643;28;20044;-44
2024/03/20 06:44:22;;;;;;;18.45;11.95;;;7.50;99.90;;;;;;5070313;28;20516;-45
2024/03/20 06:46:49;;;;;;;25.35;13.30;;;7.60;99.90;;;;;;5069134;28;20033;-45
2024/03/20 06:49:15;;;;;;;26.10;12.90;;;7.60;99.90;;;;;;5067878;28;20041;-45
2024/03/20 06:51:42;;;;;;;23.55;12.55;;;7.70;99.90;;;;;;5066603;28;20041;-45
2024/03/20 06:54:16;;;;;;;23.80;13.38;;;7.90;99.90;;;;;;5070524;28;20040;-44
2024/03/20 06:56:48;;;;;;;24.77;12.52;;;7.90;99.90;;;;;;5064544;28;20089;-50
2024/03/20 06:59:17;;;;;;;;;;;8.00;99.90;;;;;;5070086;28;20040;-49
2024/03/20 07:01:44;;;;;;;22.58;13.60;;;8.00;99.90;;;;;;5061621;28;19924;-49
2024/03/20 07:04:10;;;;;;;22.27;15.00;;;8.20;99.90;;;;;;5080806;28;20045;-49
2024/03/20 07:06:37;;;;;;;27.67;14.70;;;8.30;99.90;;;;;;5068943;28;20512;-51
2024/03/20 07:09:03;;;;;;;22.35;13.70;;;8.30;99.90;;;;;;5076204;28;20041;-45
2024/03/20 07:11:29;;;;;;;20.75;13.48;;;8.40;99.90;;;;;;5069749;28;20051;-46
2024/03/20 07:13:55;;;;;;;20.13;13.20;;;8.50;99.90;;;;;;5064951;28;20110;-47
2024/03/20 07:16:22;;;;;;;21.17;14.20;;;8.60;99.90;;;;;;5067354;28;20040;-44
2024/03/20 07:18:48;;;;;;;21.15;15.15;;;8.80;99.90;;;;;;5064524;28;20052;-41
2024/03/20 07:21:14;;;;;;;25.65;16.15;;;8.80;99.90;;;;;;5070018;28;20163;-45
2024/03/20 07:23:40;;;;;;;23.90;16.48;;;8.90;99.90;;;;;;5067493;28;20276;-47
2024/03/20 07:26:06;;;;;;;24.35;15.88;;;9.10;99.90;;;;;;5067460;28;20052;-50
2024/03/20 07:28:33;;;;;;;28.67;18.35;;;9.20;99.90;;;;;;5063217;28;20055;-49
2024/03/20 07:30:59;;;;;;;31.23;18.55;;;9.30;99.90;;;;;;5065345;28;20139;-50
2024/03/20 07:33:25;;;;;;;28.33;18.13;;;9.40;99.90;;;;;;5069564;28;20036;-46
2024/03/20 07:35:51;;;;;;;24.63;17.15;;;9.50;99.90;;;;;;5066016;28;20067;-52
2024/03/20 07:38:17;;;;;;;26.52;18.33;;;9.50;99.90;;;;;;5069152;28;20157;-47
2024/03/20 07:40:43;;;;;;;26.30;17.23;;;9.70;99.90;;;;;;5065553;28;20200;-49
2024/03/20 07:43:09;;;;;;;28.38;17.08;;;9.70;99.90;;;;;;5071959;28;20352;-47
2024/03/20 07:45:36;;;;;;;29.10;18.83;;;9.80;99.90;;;;;;5058968;28;20416;-54
2024/03/20 07:48:03;;;;;;;28.70;17.92;;;9.80;99.90;;;;;;5058516;28;20182;-45
2024/03/20 07:50:29;;;;;;;24.90;16.15;;;9.90;99.90;;;;;;5066874;28;20374;-45
2024/03/20 07:52:55;;;;;;;26.08;16.77;;;10.00;99.90;;;;;;5066381;28;20111;-43
2024/03/20 07:55:21;;;;;;;27.10;17.52;;;10.10;99.90;;;;;;5067737;28;20151;-44
2024/03/20 07:57:48;;;;;;;26.85;16.92;;;10.30;99.90;;;;;;5062403;28;20059;-48
2024/03/20 08:00:17;;;;;;;24.23;16.52;;;10.30;99.90;;;;;;5079215;28;20101;-45
2024/03/20 08:02:43;;;;;;;24.52;17.52;;;10.50;99.90;;;;;;5068009;28;20086;-44
2024/03/20 08:05:11;;;;;;;22.85;15.27;;;10.50;99.90;;;;;;5069492;28;20488;-44
2024/03/20 08:07:38;;;;;;;24.15;16.27;;;10.70;99.90;;;;;;5068731;28;20103;-46
2024/03/20 08:10:05;;;;;;;23.75;16.00;;;10.80;99.90;;;;;;5065766;28;20032;-48
2024/03/20 08:12:32;;;;;;;26.88;17.23;;;11.00;99.90;;;;;;5067850;28;20117;-45
2024/03/20 08:14:58;;;;;;;26.35;16.52;;;11.10;99.90;;;;;;5076220;28;20051;-47
2024/03/20 08:17:25;;;;;;;24.75;16.20;;;11.20;99.90;;;;;;5068843;28;20055;-45
2024/03/20 08:19:51;;;;;;;22.98;16.77;;;11.30;99.90;;;;;;5070000;28;20048;-46
2024/03/20 08:22:17;;;;;;;29.02;19.88;;;11.50;99.90;;;;;;5067087;28;20326;-47
2024/03/20 08:24:43;;;;;;;25.42;17.85;;;11.60;99.90;;;;;;5067547;28;20393;-44
2024/03/20 08:27:10;;;;;;;25.98;16.95;;;11.80;99.90;;;;;;5066291;28;20685;-42
2024/03/20 08:29:37;;;;;;;27.98;16.92;;;11.90;99.90;;;;;;5062737;28;20048;-44
2024/03/20 08:32:04;;;;;;;25.25;16.35;;;12.00;99.90;;;;;;5067428;28;20295;-46
2024/03/20 08:34:34;;;;;;;24.33;18.38;;;12.20;99.90;;;;;;5068164;28;20450;-47
2024/03/20 08:36:59;;;;;;;24.95;17.67;;;12.30;99.90;;;;;;5066151;28;20440;-46
2024/03/20 08:39:26;;;;;;;22.42;16.10;;;12.40;99.90;;;;;;5069821;28;20062;-45
2024/03/20 08:41:52;;;;;;;25.50;16.13;;;12.50;99.90;;;;;;5068909;28;20044;-45
2024/03/20 08:44:18;;;;;;;22.10;16.23;;;12.50;99.90;;;;;;5068176;28;20049;-46
2024/03/20 08:46:44;;;;;;;24.13;16.42;;;12.50;99.90;;;;;;5067991;28;20040;-45
2024/03/20 08:49:10;;;;;;;25.13;17.50;;;12.70;99.90;;;;;;5066658;28;20299;-44
2024/03/20 08:51:36;;;;;;;19.73;15.07;;;13.00;99.90;;;;;;5062064;28;20044;-45
2024/03/20 08:54:03;;;;;;;19.67;14.52;;;13.10;99.90;;;;;;5069186;28;20114;-41
2024/03/20 08:56:29;;;;;;;26.90;17.75;;;13.20;99.90;;;;;;5065104;28;20048;-48
2024/03/20 08:58:55;;;;;;;20.45;15.65;;;13.40;99.90;;;;;;5070285;28;20045;-47
2024/03/20 09:01:21;;;;;;;20.80;15.43;;;13.50;99.90;;;;;;5068259;28;20048;-46
2024/03/20 09:03:47;;;;;;;21.80;15.27;;;13.70;99.90;;;;;;5065565;28;20067;-46
2024/03/20 09:06:13;;;;;;;20.15;14.60;;;13.80;99.90;;;;;;5051941;28;20155;-45
2024/03/20 09:08:39;;;;;;;15.95;12.85;;;14.00;99.90;;;;;;5065802;28;20037;-46
2024/03/20 09:11:05;;;;;;;17.48;13.32;;;13.80;99.90;;;;;;5065997;28;20055;-49
2024/03/20 09:13:31;;;;;;;17.65;12.63;;;13.90;99.90;;;;;;5063956;28;20045;-46
2024/03/20 09:15:58;;;;;;;17.50;13.07;;;14.00;99.90;;;;;;5068830;28;20048;-49
2024/03/20 09:18:24;;;;;;;15.60;12.82;;;14.20;99.90;;;;;;5069503;28;20052;-51
2024/03/20 09:20:53;;;;;;;17.08;12.57;;;14.30;99.90;;;;;;5072785;28;20049;-46
2024/03/20 09:23:22;;;;;;;17.92;13.45;;;14.40;99.90;;;;;;5065930;28;20101;-43
2024/03/20 09:25:48;;;;;;;16.13;12.73;;;14.30;99.90;;;;;;5066683;28;20352;-44
2024/03/20 09:28:14;;;;;;;15.27;11.85;;;14.50;99.90;;;;;;5070514;28;20041;-49
2024/03/20 09:30:40;;;;;;;17.83;12.30;;;14.60;99.90;;;;;;5068114;28;20093;-51
2024/03/20 09:33:06;;;;;;;18.05;12.82;;;14.80;99.90;;;;;;5062562;28;20040;-43
2024/03/20 09:35:32;;;;;;;15.00;11.07;;;14.80;99.90;;;;;;5066573;28;20048;-46
2024/03/20 09:37:58;;;;;;;15.65;11.57;;;14.90;99.90;;;;;;5069342;28;20270;-43
2024/03/20 09:40:26;;;;;;;15.05;11.70;;;15.00;99.90;;;;;;5071935;28;20149;-48
2024/03/20 09:42:53;;;;;;;14.00;11.52;;;15.20;99.90;;;;;;5067963;28;20049;-45
2024/03/20 09:45:21;;;;;;;15.70;11.77;;;15.20;99.90;;;;;;5068391;28;20105;-42
2024/03/20 09:47:49;;;;;;;17.13;12.50;;;15.40;99.90;;;;;;5064665;28;20040;-46
2024/03/20 09:50:15;;;;;;;15.38;11.73;;;15.50;99.90;;;;;;5049477;28;20048;-45
2024/03/20 09:52:41;;;;;;;17.45;12.00;;;15.60;99.90;;;;;;5065734;28;20035;-45
2024/03/20 09:55:15;;;;;;;16.55;11.90;;;15.50;99.90;;;;;;5067433;28;20261;-45
2024/03/20 09:57:50;;;;;;;16.00;11.98;;;15.50;99.90;;;;;;5067574;28;20044;-44
2024/03/20 10:00:17;;;;;;;16.98;11.50;;;15.60;99.90;;;;;;5080333;28;20055;-43
2024/03/20 10:02:44;;;;;;;14.40;10.65;;;15.70;99.90;;;;;;5065447;28;20055;-48
2024/03/20 10:05:13;;;;;;;15.63;11.65;;;15.90;99.90;;;;;;5069407;28;20143;-45
2024/03/20 10:07:41;;;;;;;13.43;10.80;;;16.00;99.90;;;;;;5060571;28;20040;-46
2024/03/20 10:10:10;;;;;;;12.18;9.63;;;16.20;99.90;;;;;;5060697;28;20040;-44
2024/03/20 10:12:37;;;;;;;18.10;10.50;;;16.20;99.90;;;;;;5067815;28;20044;-47
2024/03/20 10:15:07;;;;;;;12.85;10.43;;;16.60;99.90;;;;;;5051967;28;20098;-44
2024/03/20 10:17:34;;;;;;;13.00;9.90;;;16.80;99.90;;;;;;5063716;28;20052;-47
2024/03/20 10:20:21;;;;;;;14.25;11.10;;;17.00;99.90;;;;;;5070750;28;20208;-46
2024/03/20 10:22:49;;;;;;;13.85;10.20;;;17.20;99.90;;;;;;5064498;28;20484;-44
2024/03/20 10:25:16;;;;;;;15.05;10.60;;;17.20;99.90;;;;;;5061931;28;20040;-46
2024/03/20 10:27:45;;;;;;;15.10;10.60;;;17.40;99.90;;;;;;5067445;28;20098;-48
2024/03/20 10:30:16;;;;;;;12.27;10.32;;;17.30;99.90;;;;;;5069217;28;20071;-47
2024/03/20 10:32:47;;;;;;;15.23;10.50;;;17.70;99.90;;;;;;5081561;28;20501;-47
2024/03/20 10:35:21;;;;;;;12.43;9.47;;;17.90;99.90;;;;;;5052135;28;20048;-45
2024/03/20 10:37:47;;;;;;;11.13;9.43;;;18.20;99.90;;;;;;5062045;28;20780;-43
2024/03/20 10:40:20;;;;;;;16.40;10.98;;;18.50;99.90;;;;;;5062784;28;20055;-43
2024/03/20 10:42:49;;;;;;;16.08;10.52;;;18.80;99.90;;;;;;5064133;28;20048;-45
2024/03/20 10:45:16;;;;;;;13.68;10.82;;;19.10;99.90;;;;;;5070561;28;20037;-48
2024/03/20 10:47:47;;;;;;;14.18;11.82;;;19.40;99.90;;;;;;5069075;28;20529;-45
2024/03/20 10:50:20;;;;;;;11.50;10.35;;;19.70;99.90;;;;;;5064591;28;20338;-52
2024/03/20 10:52:49;;;;;;;11.48;10.38;;;20.00;99.90;;;;;;5065154;28;20655;-44
2024/03/20 10:55:17;;;;;;;12.23;9.73;;;20.30;99.90;;;;;;5066898;28;20246;-45
2024/03/20 10:57:47;;;;;;;11.35;9.65;;;20.40;99.90;;;;;;5069573;28;20044;-45
2024/03/20 11:00:20;;;;;;;10.50;9.40;;;20.60;99.90;;;;;;5062840;28;20052;-51
2024/03/20 11:02:47;;;;;;;10.25;9.25;;;20.80;99.90;;;;;;5062367;28;20532;-45
2024/03/20 11:05:36;;;;;;;11.23;9.82;;;21.00;99.90;;;;;;5071993;28;20048;-48
2024/03/20 11:08:07;;;;;;;10.23;9.20;;;20.40;99.90;;;;;;5064876;28;20502;-46
2024/03/20 11:10:34;;;;;;;10.32;8.93;;;20.80;99.80;;;;;;5068323;28;20528;-42
2024/03/20 11:13:01;;;;;;;12.00;8.68;;;20.20;99.40;;;;;;5063491;28;20059;-48
2024/03/20 11:15:29;;;;;;;9.98;8.98;;;20.40;98.90;;;;;;5062791;28;20040;-47
2024/03/20 11:17:55;;;;;;;10.45;9.45;;;20.60;98.50;;;;;;5062280;28;20395;-44
2024/03/20 11:20:37;;;;;;;9.45;8.55;;;20.20;98.20;;;;;;5062600;28;20153;-50
2024/03/20 11:23:07;;;;;;;8.15;7.35;;;20.70;97.90;;;;;;5062867;28;20056;-51
2024/03/20 11:25:34;;;;;;;9.52;8.30;;;21.00;95.90;;;;;;5073649;28;20624;-45
2024/03/20 11:28:01;;;;;;;27.23;20.50;;;21.60;94.70;;;;;;5064144;28;20028;-44
2024/03/20 11:30:27;;;;;;;9.23;8.30;;;21.60;94.30;;;;;;5065438;28;20066;-43
2024/03/20 11:32:53;;;;;;;9.18;8.27;;;21.60;93.80;;;;;;5067871;28;20526;-44
2024/03/20 11:35:20;;;;;;;8.85;7.95;;;21.60;93.40;;;;;;5064843;28;20056;-45
2024/03/20 11:37:47;;;;;;;8.48;7.55;;;21.80;93.20;;;;;;5062174;28;20374;-45
2024/03/20 11:40:14;;;;;;;7.97;6.72;;;21.80;91.80;;;;;;5068899;28;20045;-47
2024/03/20 11:42:40;;;;;;;8.57;7.70;;;21.80;91.50;;;;;;5065051;28;20071;-45
2024/03/20 11:45:10;;;;;;;8.93;8.02;;;22.20;90.40;;;;;;5068295;28;20052;-45
2024/03/20 11:47:37;;;;;;;9.05;8.20;;;22.20;89.20;;;;;;5064613;28;20052;-45
2024/03/20 11:50:05;;;;;;;8.25;7.45;;;22.20;90.00;;;;;;5066587;28;20045;-47
2024/03/20 11:52:31;;;;;;;8.23;7.47;;;22.40;89.70;;;;;;5049536;28;20048;-46
2024/03/20 11:54:58;;;;;;;9.30;8.40;;;23.00;87.40;;;;;;5066899;28;20048;-45
2024/03/20 11:57:24;;;;;;;13.88;9.10;;;23.30;85.70;;;;;;5067867;28;20535;-48
2024/03/20 11:59:52;;;;;;;8.77;7.95;;;23.60;84.50;;;;;;5061096;28;20048;-48
2024/03/20 12:02:19;;;;;;;8.30;7.50;;;24.10;83.50;;;;;;5068004;28;20090;-47
2024/03/20 12:04:46;;;;;;;7.72;6.85;;;23.70;81.40;;;;;;5059885;28;20437;-47
2024/03/20 12:07:30;;;;;;;7.85;7.03;;;24.10;81.90;;;;;;5069332;28;20102;-47
2024/03/20 12:09:56;;;;;;;8.18;7.13;;;23.90;80.20;;;;;;5058318;28;20086;-46
2024/03/20 12:12:26;;;;;;;8.20;7.40;;;23.60;79.20;;;;;;5069674;28;20536;-48
2024/03/20 12:14:53;;;;;;;8.45;7.30;;;23.70;79.80;;;;;;5060639;28;20053;-46
2024/03/20 12:17:19;;;;;;;8.40;7.60;;;23.40;80.00;;;;;;5061180;28;20049;-41
2024/03/20 12:19:46;;;;;;;8.27;7.13;;;23.40;78.90;;;;;;5062781;28;20531;-48
2024/03/20 12:22:14;;;;;;;7.78;6.93;;;23.90;78.50;;;;;;5067974;28;20044;-47
2024/03/20 12:24:44;;;;;;;7.45;6.55;;;24.40;77.20;;;;;;5064395;28;20079;-46
2024/03/20 12:27:11;;;;;;;7.03;6.32;;;24.80;75.50;;;;;;5059683;28;20041;-45
2024/03/20 12:29:37;;;;;;;7.00;6.30;;;25.20;74.20;;;;;;5067772;28;20041;-49
2024/03/20 12:32:04;;;;;;;7.70;6.90;;;25.50;73.10;;;;;;5061063;28;20060;-50
2024/03/20 12:34:31;;;;;;;7.70;6.72;;;25.30;72.30;;;;;;5066453;28;20060;-47
2024/03/20 12:36:57;;;;;;;7.65;6.88;;;24.90;71.60;;;;;;5061472;28;20041;-48